createdAt,value
2023-04-02T00:02:33.897Z,100.00
2023-04-02T00:05:54.874Z,100.00
2023-04-02T00:09:02.625Z,100.00
2023-04-02T00:12:19.985Z,100.00
2023-04-02T00:15:22.981Z,100.00
2023-04-02T00:18:27.770Z,100.00
2023-04-02T00:21:34.650Z,100.00
2023-04-02T00:24:40.453Z,100.00
2023-04-02T00:27:44.729Z,100.00
2023-04-02T00:30:49.711Z,100.00
2023-04-02T00:33:54.161Z,100.00
2023-04-02T00:36:57.883Z,100.00
2023-04-02T00:40:10.038Z,100.00
2023-04-02T00:43:20.945Z,100.00
2023-04-02T00:46:32.076Z,100.00
2023-04-02T00:49:40.122Z,100.00
2023-04-02T00:52:48.012Z,100.00
2023-04-02T00:55:52.841Z,100.00
2023-04-02T00:58:58.000Z,100.00
2023-04-02T01:02:28.729Z,100.00
2023-04-02T01:05:36.104Z,100.00
2023-04-02T01:08:58.023Z,100.00
2023-04-02T01:12:29.431Z,100.00
2023-04-02T01:15:38.550Z,100.00
2023-04-02T01:18:51.862Z,100.00
2023-04-02T01:21:59.023Z,100.00
2023-04-02T01:25:04.568Z,100.00
2023-04-02T01:28:19.416Z,100.00
2023-04-02T01:31:24.914Z,100.00
2023-04-02T01:34:30.268Z,100.00
2023-04-02T01:37:40.033Z,100.00
2023-04-02T01:40:48.837Z,100.00
2023-04-02T01:44:02.417Z,100.00
2023-04-02T01:47:12.675Z,100.00
2023-04-02T01:50:31.589Z,100.00
2023-04-02T01:53:35.386Z,100.00
2023-04-02T01:56:39.649Z,100.00
2023-04-02T01:59:43.676Z,100.00
2023-04-02T02:02:51.497Z,100.00
2023-04-02T02:05:55.908Z,100.00
2023-04-02T02:09:04.814Z,100.00
2023-04-02T02:12:14.170Z,100.00
2023-04-02T02:15:19.633Z,100.00
2023-04-02T02:18:24.811Z,100.00
2023-04-02T02:21:39.490Z,100.00
2023-04-02T02:24:43.324Z,100.00
2023-04-02T02:27:59.288Z,100.00
2023-04-02T02:31:05.795Z,100.00
2023-04-02T02:34:21.095Z,100.00
2023-04-02T02:37:29.947Z,100.00
2023-04-02T02:40:44.882Z,100.00
2023-04-02T02:44:01.237Z,100.00
2023-04-02T02:47:10.648Z,100.00
2023-04-02T02:50:22.898Z,100.00
2023-04-02T02:53:26.782Z,100.00
2023-04-02T02:56:36.891Z,100.00
2023-04-02T02:59:40.468Z,100.00
2023-04-02T03:02:45.891Z,100.00
2023-04-02T03:05:55.008Z,100.00
2023-04-02T03:09:09.328Z,100.00
2023-04-02T03:12:36.142Z,100.00
2023-04-02T03:15:44.711Z,100.00
2023-04-02T03:18:55.354Z,100.00
2023-04-02T03:22:07.738Z,100.00
2023-04-02T03:25:26.508Z,100.00
2023-04-02T03:28:38.942Z,100.00
2023-04-02T03:31:46.028Z,100.00
2023-04-02T03:34:58.682Z,100.00
2023-04-02T03:38:09.252Z,100.00
2023-04-02T03:41:18.667Z,100.00
2023-04-02T03:44:29.282Z,100.00
2023-04-02T03:47:39.587Z,100.00
2023-04-02T03:50:51.452Z,100.00
2023-04-02T03:53:57.224Z,100.00
2023-04-02T03:57:01.433Z,100.00
2023-04-02T04:00:13.597Z,100.00
2023-04-02T04:03:25.280Z,100.00
2023-04-02T04:06:32.330Z,100.00
2023-04-02T04:09:40.304Z,100.00
2023-04-02T04:12:48.372Z,100.00
2023-04-02T04:16:01.067Z,100.00
2023-04-02T04:19:10.879Z,100.00
2023-04-02T04:22:30.001Z,100.00
2023-04-02T04:25:40.837Z,100.00
2023-04-02T04:29:05.644Z,100.00
2023-04-02T04:32:27.104Z,100.00
2023-04-02T04:35:40.083Z,100.00
2023-04-02T04:38:55.635Z,100.00
2023-04-02T04:42:04.779Z,100.00
2023-04-02T04:45:29.830Z,100.00
2023-04-02T04:48:39.425Z,100.00
2023-04-02T04:55:38.370Z,100.00
2023-04-02T05:02:55.798Z,100.00
2023-04-02T05:06:24.191Z,100.00
2023-04-02T05:09:40.464Z,100.00
2023-04-02T05:12:52.929Z,100.00
2023-04-02T05:16:11.073Z,100.00
2023-04-02T05:19:24.690Z,100.00
2023-04-02T05:22:36.169Z,100.00
2023-04-02T05:25:52.449Z,100.00
2023-04-02T05:29:01.901Z,100.00
2023-04-02T05:32:13.757Z,100.00
2023-04-02T05:35:20.686Z,100.00
2023-04-02T05:38:27.518Z,100.00
2023-04-02T05:41:36.772Z,100.00
2023-04-02T05:44:57.460Z,100.00
2023-04-02T05:48:07.599Z,100.00
2023-04-02T05:51:23.512Z,100.00
2023-04-02T05:54:32.214Z,100.00
2023-04-02T05:57:49.516Z,100.00
2023-04-02T06:01:12.053Z,100.00
2023-04-02T06:04:25.866Z,100.00
2023-04-02T06:07:33.283Z,100.00
2023-04-02T06:10:47.573Z,100.00
2023-04-02T06:13:51.063Z,100.00
2023-04-02T06:16:54.182Z,100.00
2023-04-02T06:20:00.659Z,100.00
2023-04-02T06:23:12.396Z,100.00
2023-04-02T06:26:25.408Z,100.00
2023-04-02T06:29:52.714Z,100.00
2023-04-02T06:32:57.482Z,100.00
2023-04-02T06:36:14.687Z,100.00
2023-04-02T06:39:22.828Z,100.00
2023-04-02T06:42:32.364Z,100.00
2023-04-02T06:45:58.758Z,100.00
2023-04-02T06:49:30.335Z,100.00
2023-04-02T06:52:48.754Z,100.00
2023-04-02T06:55:57.675Z,100.00
2023-04-02T06:59:17.588Z,100.00
2023-04-02T07:02:35.050Z,100.00
2023-04-02T07:05:42.508Z,100.00
2023-04-02T07:09:04.024Z,100.00
2023-04-02T07:12:13.212Z,100.00
2023-04-02T07:18:39.472Z,100.00
2023-04-02T07:21:43.675Z,100.00
2023-04-02T07:24:51.123Z,100.00
2023-04-02T07:27:55.454Z,100.00
2023-04-02T07:30:59.080Z,100.00
2023-04-02T07:34:02.849Z,100.00
2023-04-02T07:37:06.979Z,100.00
2023-04-02T07:40:19.055Z,100.00
2023-04-02T07:43:23.177Z,100.00
2023-04-02T07:46:26.570Z,100.00
2023-04-02T07:49:32.423Z,100.00
2023-04-02T07:52:37.637Z,100.00
2023-04-02T07:55:43.863Z,100.00
2023-04-02T07:58:47.924Z,100.00
2023-04-02T08:01:53.187Z,100.00
2023-04-02T08:04:58.584Z,100.00
2023-04-02T08:08:02.222Z,100.00
2023-04-02T08:11:08.608Z,100.00
2023-04-02T08:14:12.668Z,100.00
2023-04-02T08:17:15.973Z,100.00
2023-04-02T08:20:22.740Z,100.00
2023-04-02T08:23:27.145Z,100.00
2023-04-02T08:26:40.335Z,100.00
2023-04-02T08:29:45.096Z,100.00
2023-04-02T08:32:48.773Z,100.00
2023-04-02T08:36:28.873Z,100.00
2023-04-02T08:40:13.660Z,100.00
2023-04-02T08:44:15.320Z,100.00
2023-04-02T08:47:20.400Z,100.00
2023-04-02T08:50:32.933Z,100.00
2023-04-02T08:53:57.392Z,100.00
2023-04-02T08:57:27.928Z,100.00
2023-04-02T09:01:08.734Z,100.00
2023-04-02T09:04:22.125Z,100.00
2023-04-02T09:07:31.040Z,100.00
2023-04-02T09:10:46.042Z,100.00
2023-04-02T09:13:58.005Z,100.00
2023-04-02T09:17:05.100Z,100.00
2023-04-02T09:20:21.402Z,100.00
2023-04-02T09:23:43.792Z,100.00
2023-04-02T09:26:47.835Z,100.00
2023-04-02T09:29:55.367Z,100.00
2023-04-02T09:33:02.462Z,100.00
2023-04-02T09:36:19.307Z,100.00
2023-04-02T09:39:26.850Z,100.00
2023-04-02T09:42:38.150Z,100.00
2023-04-02T09:45:43.715Z,100.00
2023-04-02T09:49:01.346Z,100.00
2023-04-02T09:52:32.291Z,100.00
2023-04-02T09:55:39.772Z,100.00
2023-04-02T09:58:45.714Z,100.00
2023-04-02T10:02:33.430Z,100.00
2023-04-02T10:05:45.794Z,100.00
2023-04-02T10:08:54.212Z,100.00
2023-04-02T10:12:02.785Z,100.00
2023-04-02T10:15:16.578Z,100.00
2023-04-02T10:18:39.300Z,100.00
2023-04-02T10:21:53.906Z,100.00
2023-04-02T10:25:07.867Z,100.00
2023-04-02T10:28:29.448Z,100.00
2023-04-02T10:31:52.777Z,100.00
2023-04-02T10:35:03.818Z,100.00
2023-04-02T10:38:27.583Z,100.00
2023-04-02T10:41:34.055Z,100.00
2023-04-02T10:44:54.840Z,100.00
2023-04-02T10:48:17.573Z,100.00
2023-04-02T10:51:36.031Z,100.00
2023-04-02T10:54:50.667Z,100.00
2023-04-02T10:58:07.617Z,100.00
2023-04-02T11:01:21.029Z,100.00
2023-04-02T11:04:32.965Z,100.00
2023-04-02T11:07:52.960Z,100.00
2023-04-02T11:11:16.318Z,100.00
2023-04-02T11:14:25.505Z,100.00
2023-04-02T11:17:46.458Z,100.00
2023-04-02T11:21:54.830Z,100.00
2023-04-02T11:25:15.499Z,100.00
2023-04-02T11:28:34.786Z,100.00
2023-04-02T11:31:38.808Z,100.00
2023-04-02T11:35:58.097Z,100.00
2023-04-02T11:39:19.295Z,100.00
2023-04-02T11:42:37.371Z,100.00
2023-04-02T11:45:59.227Z,100.00
2023-04-02T11:49:57.648Z,100.00
2023-04-02T11:56:42.236Z,100.00
2023-04-02T12:00:01.847Z,100.00
2023-04-02T12:03:53.527Z,100.00
2023-04-02T12:07:35.307Z,100.00
2023-04-02T12:11:03.686Z,100.00
2023-04-02T12:14:31.884Z,100.00
2023-04-02T12:17:43.013Z,100.00
2023-04-02T12:20:56.046Z,100.00
2023-04-02T12:24:02.277Z,100.00
2023-04-02T12:27:46.583Z,100.00
2023-04-02T12:30:51.661Z,100.00
2023-04-02T12:34:05.727Z,100.00
2023-04-02T12:37:29.170Z,100.00
2023-04-02T12:40:32.298Z,100.00
2023-04-02T12:43:41.284Z,100.00
2023-04-02T12:46:54.396Z,100.00
2023-04-02T12:50:00.025Z,100.00
2023-04-02T12:53:21.445Z,100.00
2023-04-02T12:56:25.862Z,100.00
2023-04-02T12:59:33.671Z,100.00
2023-04-02T13:02:47.914Z,100.00
2023-04-02T13:05:55.470Z,100.00
2023-04-02T13:09:01.602Z,96.87
2023-04-02T13:12:05.655Z,90.71
2023-04-02T13:15:19.998Z,87.23
2023-04-02T13:18:24.281Z,91.23
2023-04-02T13:21:28.846Z,90.49
2023-04-02T13:24:34.235Z,88.60
2023-04-02T13:27:37.363Z,87.27
2023-04-02T13:30:40.387Z,88.15
2023-04-02T13:33:43.511Z,90.21
2023-04-02T13:36:46.999Z,94.06
2023-04-02T13:39:51.351Z,95.97
2023-04-02T13:42:54.381Z,97.70
2023-04-02T13:46:00.951Z,100.00
2023-04-02T13:49:04.308Z,97.87
2023-04-02T13:52:15.097Z,91.76
2023-04-02T13:55:25.328Z,95.83
2023-04-02T13:58:28.307Z,96.27
2023-04-02T14:01:32.883Z,92.27
2023-04-02T14:04:40.498Z,87.69
2023-04-02T14:07:58.878Z,91.20
2023-04-02T14:11:22.337Z,90.97
2023-04-02T14:14:41.957Z,86.78
2023-04-02T14:18:05.096Z,83.90
2023-04-02T14:21:18.259Z,85.46
2023-04-02T14:24:28.949Z,88.50
2023-04-02T14:27:43.097Z,89.21
2023-04-02T14:31:00.046Z,91.58
2023-04-02T14:34:17.914Z,89.54
2023-04-02T14:37:30.721Z,89.40
2023-04-02T14:40:42.658Z,91.93
2023-04-02T14:43:53.147Z,94.00
2023-04-02T14:47:06.558Z,94.94
2023-04-02T14:50:14.982Z,95.15
2023-04-02T14:53:26.517Z,95.05
2023-04-02T14:56:33.892Z,94.14
2023-04-02T14:59:47.390Z,95.88
2023-04-02T15:02:58.134Z,95.85
2023-04-02T15:06:04.371Z,97.12
2023-04-02T15:09:15.400Z,99.55
2023-04-02T15:12:23.977Z,97.36
2023-04-02T15:15:41.315Z,95.14
2023-04-02T15:18:44.348Z,95.24
2023-04-02T15:22:17.523Z,99.53
2023-04-02T15:25:33.048Z,100.00
2023-04-02T15:28:44.632Z,100.00
2023-04-02T15:31:49.059Z,94.64
2023-04-02T15:35:00.639Z,97.10
2023-04-02T15:38:12.989Z,99.55
2023-04-02T15:41:25.277Z,100.00
2023-04-02T15:44:28.470Z,100.00
2023-04-02T15:47:48.689Z,99.25
2023-04-02T15:51:04.232Z,99.20
2023-04-02T15:54:22.971Z,100.00
2023-04-02T15:57:48.963Z,100.00
2023-04-02T16:01:06.893Z,100.00
2023-04-02T16:04:35.595Z,100.00
2023-04-02T16:08:17.004Z,98.84
2023-04-02T16:11:20.885Z,96.65
2023-04-02T16:14:28.114Z,97.64
2023-04-02T16:17:39.825Z,97.59
2023-04-02T16:20:51.038Z,100.00
2023-04-02T16:23:54.289Z,100.00
2023-04-02T16:27:14.767Z,100.00
2023-04-02T16:30:42.795Z,100.00
2023-04-02T16:34:02.370Z,100.00
2023-04-02T16:37:13.662Z,100.00
2023-04-02T16:40:30.977Z,100.00
2023-04-02T16:43:42.178Z,100.00
2023-04-02T16:47:03.201Z,100.00
2023-04-02T16:50:22.631Z,100.00
2023-04-02T16:53:47.819Z,100.00
2023-04-02T16:57:18.950Z,100.00
2023-04-02T17:00:27.764Z,100.00
2023-04-02T17:03:52.483Z,100.00
2023-04-02T17:07:11.697Z,100.00
2023-04-02T17:10:31.315Z,100.00
2023-04-02T17:13:41.787Z,100.00
2023-04-02T17:16:47.267Z,100.00
2023-04-02T17:19:54.453Z,100.00
2023-04-02T17:22:57.927Z,100.00
2023-04-02T17:26:08.177Z,100.00
2023-04-02T17:29:18.525Z,100.00
2023-04-02T17:32:27.412Z,100.00
2023-04-02T17:35:41.278Z,100.00
2023-04-02T17:38:53.146Z,100.00
2023-04-02T17:42:11.095Z,100.00
2023-04-02T17:45:20.418Z,100.00
2023-04-02T17:48:33.135Z,100.00
2023-04-02T17:51:43.398Z,100.00
2023-04-02T17:54:59.050Z,100.00
2023-04-02T17:58:11.251Z,100.00
2023-04-02T18:01:25.321Z,100.00
2023-04-02T18:04:39.658Z,100.00
2023-04-02T18:07:53.127Z,100.00
2023-04-02T18:11:09.527Z,100.00
2023-04-02T18:14:36.608Z,100.00
2023-04-02T18:17:49.561Z,100.00
2023-04-02T18:21:06.395Z,100.00
2023-04-02T18:24:25.557Z,100.00
2023-04-02T18:27:43.843Z,100.00
2023-04-02T18:30:55.860Z,100.00
2023-04-02T18:34:41.565Z,100.00
2023-04-02T18:37:58.521Z,100.00
2023-04-02T18:41:19.463Z,100.00
2023-04-02T18:44:50.363Z,100.00
2023-04-02T18:48:09.712Z,100.00
2023-04-02T18:51:21.291Z,100.00
2023-04-02T18:54:32.079Z,100.00
2023-04-02T18:57:38.887Z,100.00
2023-04-02T19:00:46.127Z,100.00
2023-04-02T19:03:54.254Z,100.00
2023-04-02T19:07:13.947Z,100.00
2023-04-02T19:10:31.232Z,100.00
2023-04-02T19:13:35.966Z,100.00
2023-04-02T19:16:59.242Z,100.00
2023-04-02T19:20:15.754Z,100.00
2023-04-02T19:23:38.570Z,100.00
2023-04-02T19:26:48.949Z,100.00
2023-04-02T19:30:08.709Z,100.00
2023-04-02T19:33:35.772Z,100.00
2023-04-02T19:36:48.774Z,100.00
2023-04-02T19:40:15.273Z,100.00
2023-04-02T19:43:21.633Z,100.00
2023-04-02T19:46:28.904Z,100.00
2023-04-02T19:49:37.433Z,100.00
2023-04-02T19:52:41.746Z,100.00
2023-04-02T19:55:45.469Z,100.00
2023-04-02T19:58:48.460Z,100.00
2023-04-02T20:01:52.608Z,100.00
2023-04-02T20:04:56.565Z,100.00
2023-04-02T20:08:01.273Z,100.00
2023-04-02T20:11:04.667Z,100.00
2023-04-02T20:14:07.856Z,100.00
2023-04-02T20:17:11.095Z,100.00
2023-04-02T20:20:16.128Z,100.00
2023-04-02T20:23:21.195Z,100.00
2023-04-02T20:26:24.379Z,100.00
2023-04-02T20:29:29.515Z,100.00
2023-04-02T20:32:33.907Z,100.00
2023-04-02T20:35:40.665Z,100.00
2023-04-02T20:38:45.940Z,100.00
2023-04-02T20:41:49.472Z,100.00
2023-04-02T20:44:52.849Z,100.00
2023-04-02T20:47:56.626Z,100.00
2023-04-02T20:51:01.990Z,100.00
2023-04-02T20:54:06.891Z,100.00
2023-04-02T20:57:10.018Z,100.00
2023-04-02T21:00:14.658Z,100.00
2023-04-02T21:03:17.802Z,100.00
2023-04-02T21:06:24.323Z,100.00
2023-04-02T21:09:28.682Z,100.00
2023-04-02T21:12:32.062Z,100.00
2023-04-02T21:15:35.412Z,100.00
2023-04-02T21:18:38.760Z,100.00
2023-04-02T21:21:44.134Z,100.00
2023-04-02T21:24:48.438Z,100.00
2023-04-02T21:27:51.724Z,100.00
2023-04-02T21:31:03.746Z,100.00
2023-04-02T21:34:09.192Z,100.00
2023-04-02T21:37:12.513Z,100.00
2023-04-02T21:40:17.173Z,100.00
2023-04-02T21:43:20.376Z,100.00
2023-04-02T21:46:26.118Z,100.00
2023-04-02T21:49:29.748Z,100.00
2023-04-02T21:52:32.788Z,100.00
2023-04-02T21:55:37.390Z,100.00
2023-04-02T21:58:40.664Z,100.00
2023-04-02T22:01:47.025Z,100.00
2023-04-02T22:04:51.963Z,100.00
2023-04-02T22:07:55.369Z,100.00
2023-04-02T22:11:07.376Z,100.00
2023-04-02T22:14:11.474Z,100.00
2023-04-02T22:17:14.567Z,100.00
2023-04-02T22:20:17.851Z,100.00
2023-04-02T22:23:21.522Z,100.00
2023-04-02T22:26:27.423Z,100.00
2023-04-02T22:29:30.599Z,100.00
2023-04-02T22:32:33.789Z,100.00
2023-04-02T22:35:36.932Z,100.00
2023-04-02T22:38:40.799Z,100.00
2023-04-02T22:41:45.250Z,100.00
2023-04-02T22:44:49.264Z,100.00
2023-04-02T22:47:52.501Z,100.00
2023-04-02T22:50:55.930Z,100.00
2023-04-02T22:53:59.273Z,100.00
2023-04-02T22:57:03.622Z,100.00
2023-04-02T23:00:11.352Z,100.00
2023-04-02T23:03:15.829Z,100.00
2023-04-02T23:06:19.544Z,100.00
2023-04-02T23:09:22.544Z,100.00
2023-04-02T23:12:27.606Z,100.00
2023-04-02T23:15:30.821Z,100.00
2023-04-02T23:18:35.570Z,100.00
2023-04-02T23:21:38.575Z,100.00
2023-04-02T23:24:41.610Z,100.00
2023-04-02T23:27:47.586Z,100.00
2023-04-02T23:30:50.853Z,100.00
2023-04-02T23:33:53.986Z,100.00
2023-04-02T23:36:57.108Z,100.00
2023-04-02T23:40:00.527Z,100.00
2023-04-02T23:43:04.961Z,100.00
2023-04-02T23:46:08.065Z,100.00
2023-04-02T23:49:12.823Z,100.00
2023-04-02T23:52:16.288Z,100.00
2023-04-02T23:55:19.586Z,100.00
2023-04-02T23:58:24.109Z,100.00
